Time;durP1;ratioP1;P1;durP2;ratioP2;P2;SDS_P1;SDS_P2;PMS_P1;PMS_P2;Temp;Humidity;BMP_temperature;BMP_pressure;BME280_temperature;BME280_humidity;BME280_pressure;Samples;Min_cycle;Max_cycle;Signal;HPM_P1;HPM_P2
2022/09/17 00:02:00;;;;;;;5.20;1.70;;;11.00;99.90;;;;;;5076801;28;20201;-81
2022/09/17 00:04:25;;;;;;;11.97;1.63;;;11.00;99.90;;;;;;5078140;28;20652;-81
2022/09/17 00:06:51;;;;;;;6.60;1.73;;;11.10;99.90;;;;;;5077314;28;20266;-81
2022/09/17 00:09:16;;;;;;;9.23;1.97;;;11.00;99.90;;;;;;5077116;28;20239;-80
2022/09/17 00:11:42;;;;;;;3.47;1.50;;;11.10;99.90;;;;;;5074040;28;20183;-80
2022/09/17 00:14:13;;;;;;;8.87;2.43;;;11.00;99.90;;;;;;5075657;28;20166;-80
2022/09/17 00:16:42;;;;;;;7.63;2.03;;;11.00;99.90;;;;;;5075170;28;20581;-81
2022/09/17 00:19:13;;;;;;;9.30;1.90;;;11.00;99.90;;;;;;5075489;28;20273;-80
2022/09/17 00:21:40;;;;;;;6.87;1.53;;;11.00;99.90;;;;;;5074464;28;20222;-81
2022/09/17 00:24:06;;;;;;;8.47;1.50;;;11.00;99.90;;;;;;5075001;28;20695;-79
2022/09/17 00:26:33;;;;;;;6.77;1.83;;;11.00;99.90;;;;;;5074615;28;20167;-80
2022/09/17 00:29:00;;;;;;;3.97;1.60;;;11.10;99.90;;;;;;5074312;28;20171;-80
2022/09/17 00:31:26;;;;;;;10.43;2.57;;;11.00;99.90;;;;;;5072777;28;20178;-79
2022/09/17 00:33:52;;;;;;;9.20;1.80;;;11.00;99.90;;;;;;5072886;28;20175;-80
2022/09/17 00:36:19;;;;;;;7.30;1.67;;;11.00;99.90;;;;;;5074549;28;20182;-80
2022/09/17 00:38:51;;;;;;;10.57;1.83;;;10.90;99.90;;;;;;5073661;28;20175;-79
2022/09/17 00:41:18;;;;;;;9.50;3.17;;;11.00;99.90;;;;;;5074372;28;20186;-80
2022/09/17 00:43:49;;;;;;;4.53;1.43;;;11.00;99.90;;;;;;5074492;28;20633;-80
2022/09/17 00:46:36;;;;;;;7.40;1.80;;;10.90;99.90;;;;;;5074703;28;20147;-80
2022/09/17 00:49:11;;;;;;;8.30;1.70;;;10.90;99.90;;;;;;5074026;28;20186;-80
2022/09/17 00:51:41;;;;;;;9.50;2.40;;;10.90;99.90;;;;;;5073935;28;20210;-80
2022/09/17 00:54:09;;;;;;;15.80;3.23;;;10.90;99.90;;;;;;5075419;28;20178;-79
2022/09/17 00:56:37;;;;;;;10.70;2.97;;;10.90;99.90;;;;;;5075987;28;20265;-80
2022/09/17 00:59:02;;;;;;;12.63;3.57;;;10.90;99.90;;;;;;5076789;28;20182;-80
2022/09/17 01:01:29;;;;;;;11.73;4.20;;;10.90;99.90;;;;;;5077803;28;20301;-79
2022/09/17 01:03:55;;;;;;;9.20;3.57;;;11.00;99.90;;;;;;5079316;28;20178;-81
2022/09/17 01:06:40;;;;;;;10.70;3.03;;;11.00;99.90;;;;;;5077970;28;20174;-80
2022/09/17 01:09:20;;;;;;;10.07;3.03;;;11.00;99.90;;;;;;5078510;28;20210;-81
2022/09/17 01:12:12;;;;;;;8.57;2.50;;;10.90;99.90;;;;;;5078436;28;20170;-80
2022/09/17 01:15:15;;;;;;;8.97;1.93;;;10.90;99.90;;;;;;5077794;28;20266;-81
2022/09/17 01:17:58;;;;;;;9.67;1.93;;;10.90;99.90;;;;;;5075713;28;20177;-79
2022/09/17 01:20:57;;;;;;;7.13;1.93;;;10.90;99.90;;;;;;5078108;28;20220;-80
2022/09/17 01:23:49;;;;;;;9.43;2.17;;;10.80;99.90;;;;;;5078611;28;20152;-81
2022/09/17 01:27:01;;;;;;;11.23;2.30;;;10.80;99.90;;;;;;5076822;28;20159;-80
2022/09/17 01:29:36;;;;;;;9.03;1.97;;;10.80;99.90;;;;;;5051598;28;20214;-80
2022/09/17 01:32:14;;;;;;;12.23;2.73;;;10.80;99.90;;;;;;5077663;28;20658;-80
2022/09/17 01:35:01;;;;;;;6.77;1.70;;;10.70;99.90;;;;;;5076681;28;20163;-80
2022/09/17 01:37:58;;;;;;;6.33;2.13;;;10.70;99.90;;;;;;5076517;28;20174;-80
2022/09/17 01:40:37;;;;;;;11.40;2.43;;;10.70;99.90;;;;;;5068498;28;20708;-81
2022/09/17 01:43:19;;;;;;;8.67;2.77;;;10.70;99.90;;;;;;5077484;28;20276;-80
2022/09/17 01:45:50;;;;;;;17.07;2.90;;;10.70;99.90;;;;;;5078220;28;20154;-80
2022/09/17 01:48:23;;;;;;;10.43;2.97;;;10.70;99.90;;;;;;5076348;28;20189;-81
2022/09/17 01:50:55;;;;;;;8.93;2.90;;;10.70;99.90;;;;;;5076811;28;20265;-80
2022/09/17 01:53:25;;;;;;;9.07;2.90;;;10.70;99.90;;;;;;5077000;28;20185;-80
2022/09/17 01:55:54;;;;;;;10.93;3.10;;;10.70;99.90;;;;;;5076600;28;20171;-80
2022/09/17 01:58:34;;;;;;;10.27;3.20;;;10.80;99.90;;;;;;5076516;28;20567;-80
2022/09/17 02:01:03;;;;;;;15.03;3.30;;;10.80;99.90;;;;;;5076915;28;20282;-80
2022/09/17 02:03:44;;;;;;;13.10;3.03;;;10.80;99.90;;;;;;5078146;28;20179;-80
2022/09/17 02:06:15;;;;;;;16.03;3.00;;;10.80;99.90;;;;;;5077627;28;20594;-80
2022/09/17 02:08:46;;;;;;;10.90;3.53;;;10.80;99.90;;;;;;5076399;28;20164;-80
2022/09/17 02:11:14;;;;;;;8.87;2.60;;;10.90;99.90;;;;;;5077791;28;20188;-81
2022/09/17 02:13:53;;;;;;;7.77;2.60;;;10.90;99.90;;;;;;5078097;28;20648;-81
2022/09/17 02:16:30;;;;;;;10.53;2.53;;;10.90;99.90;;;;;;5077945;28;20637;-81
2022/09/17 02:19:10;;;;;;;11.07;2.63;;;10.90;99.90;;;;;;5078844;28;20167;-80
2022/09/17 02:22:07;;;;;;;11.67;2.50;;;10.90;99.90;;;;;;5078117;28;20798;-81
2022/09/17 02:25:02;;;;;;;10.40;2.03;;;11.00;99.90;;;;;;5078024;28;20163;-81
2022/09/17 02:27:35;;;;;;;10.63;2.57;;;11.00;99.90;;;;;;5075721;28;20602;-81
2022/09/17 02:30:01;;;;;;;14.23;2.00;;;11.00;99.90;;;;;;5076100;28;20245;-81
2022/09/17 02:32:27;;;;;;;13.67;2.50;;;11.00;99.90;;;;;;5076210;28;20187;-80
2022/09/17 02:34:52;;;;;;;11.90;2.37;;;11.00;99.90;;;;;;5076254;28;20178;-80
2022/09/17 02:37:18;;;;;;;9.30;1.80;;;11.00;99.90;;;;;;5076682;28;20171;-80
2022/09/17 02:39:43;;;;;;;13.20;2.73;;;11.00;99.90;;;;;;5077813;28;20207;-81
2022/09/17 02:42:31;;;;;;;11.00;2.00;;;11.00;99.90;;;;;;5076781;28;20183;-81
2022/09/17 02:45:17;;;;;;;10.93;2.50;;;11.00;99.90;;;;;;5076503;28;20167;-81
2022/09/17 02:48:18;;;;;;;9.27;2.10;;;11.10;99.90;;;;;;5076128;28;20159;-81
2022/09/17 02:51:32;;;;;;;7.87;1.77;;;11.10;99.90;;;;;;5075107;28;20207;-80
2022/09/17 02:54:16;;;;;;;9.47;1.67;;;11.10;99.90;;;;;;5073972;28;20175;-81
2022/09/17 02:57:06;;;;;;;8.63;2.30;;;11.00;99.90;;;;;;5076495;28;20178;-81
2022/09/17 02:59:56;;;;;;;5.73;1.53;;;11.00;99.90;;;;;;5077132;28;20610;-81
2022/09/17 03:02:33;;;;;;;11.20;2.00;;;11.00;99.90;;;;;;5076773;28;20183;-81
2022/09/17 03:05:00;;;;;;;12.80;2.47;;;11.00;99.90;;;;;;5077209;28;20151;-81
2022/09/17 03:07:28;;;;;;;6.47;1.63;;;11.00;99.90;;;;;;5076909;28;20167;-80
2022/09/17 03:09:53;;;;;;;12.33;2.80;;;10.90;99.90;;;;;;5077362;28;20699;-81
2022/09/17 03:12:19;;;;;;;9.00;1.50;;;10.90;99.90;;;;;;5076296;28;20179;-81
2022/09/17 03:14:44;;;;;;;11.97;2.03;;;10.90;99.90;;;;;;5075571;28;20205;-80
2022/09/17 03:17:11;;;;;;;4.23;1.53;;;11.00;99.90;;;;;;5076905;28;20660;-81
2022/09/17 03:19:36;;;;;;;13.83;1.97;;;11.00;99.90;;;;;;5075589;28;20303;-80
2022/09/17 03:22:02;;;;;;;4.77;1.50;;;11.00;99.90;;;;;;5076212;28;20175;-80
2022/09/17 03:24:27;;;;;;;8.97;1.53;;;11.00;99.90;;;;;;5074552;28;20236;-80
2022/09/17 03:26:53;;;;;;;8.10;1.77;;;11.00;99.90;;;;;;5076309;28;20167;-80
2022/09/17 03:29:18;;;;;;;10.73;1.67;;;11.00;99.90;;;;;;5076286;28;20225;-81
2022/09/17 03:31:44;;;;;;;7.83;1.67;;;11.00;99.90;;;;;;5098569;22;20221;-92
2022/09/17 03:34:10;;;;;;;8.07;1.63;;;11.00;99.90;;;;;;5093952;28;20201;-92
2022/09/17 03:36:35;;;;;;;11.80;2.30;;;11.00;99.90;;;;;;5095524;28;20194;-91
2022/09/17 03:39:01;;;;;;;6.23;1.73;;;11.10;99.90;;;;;;5094965;28;20193;-92
2022/09/17 03:41:27;;;;;;;8.70;1.60;;;11.00;99.90;;;;;;5080616;28;20209;-92
2022/09/17 03:43:53;;;;;;;10.33;1.63;;;11.10;99.90;;;;;;5073547;28;20644;-92
2022/09/17 03:46:19;;;;;;;5.53;1.00;;;11.10;99.90;;;;;;5073363;28;20170;-92
2022/09/17 03:48:45;;;;;;;7.60;1.53;;;11.10;99.90;;;;;;5073121;28;20285;-92
2022/09/17 03:51:11;;;;;;;7.90;1.83;;;11.10;99.90;;;;;;5073734;28;20218;-92
2022/09/17 03:53:37;;;;;;;9.83;2.10;;;11.10;99.90;;;;;;5074983;28;20179;-93
2022/09/17 03:56:04;;;;;;;6.33;1.50;;;11.10;99.90;;;;;;5075768;28;20536;-93
2022/09/17 03:58:30;;;;;;;9.07;1.57;;;11.10;99.90;;;;;;5074066;28;20687;-94
2022/09/17 04:00:56;;;;;;;11.63;1.73;;;11.10;99.90;;;;;;5074480;28;20241;-93
2022/09/17 04:03:26;;;;;;;9.60;1.40;;;11.10;99.90;;;;;;5074457;28;20241;-93
2022/09/17 04:05:53;;;;;;;10.67;1.87;;;11.10;99.90;;;;;;5079823;28;20179;-93
2022/09/17 04:08:19;;;;;;;8.33;1.70;;;11.10;99.90;;;;;;5078023;28;20194;-93
2022/09/17 04:10:45;;;;;;;12.37;2.10;;;11.10;99.90;;;;;;5072261;28;20710;-92
2022/09/17 04:13:11;;;;;;;7.50;2.10;;;11.10;99.90;;;;;;5063979;28;20195;-92
2022/09/17 04:15:37;;;;;;;6.53;1.73;;;11.10;99.90;;;;;;5062506;28;20179;-92
2022/09/17 04:18:02;;;;;;;9.83;2.20;;;11.10;99.90;;;;;;5066569;28;20569;-92
2022/09/17 04:20:28;;;;;;;6.67;1.87;;;11.10;99.90;;;;;;5063391;28;20675;-92
2022/09/17 04:22:54;;;;;;;10.60;2.17;;;11.10;99.90;;;;;;5059993;28;20588;-92
2022/09/17 04:25:20;;;;;;;11.33;2.20;;;11.10;99.90;;;;;;5082268;28;20179;-92
2022/09/17 04:27:46;;;;;;;12.80;1.70;;;11.10;99.90;;;;;;5061811;28;20679;-92
2022/09/17 04:30:12;;;;;;;7.97;1.50;;;11.10;99.90;;;;;;5059867;28;20238;-92
2022/09/17 04:32:37;;;;;;;11.33;1.87;;;11.00;99.90;;;;;;5065249;28;20179;-92
2022/09/17 04:35:03;;;;;;;9.93;1.83;;;11.00;99.90;;;;;;5066194;28;20210;-92
2022/09/17 04:37:29;;;;;;;7.83;1.97;;;11.00;99.90;;;;;;5079479;28;20209;-92
2022/09/17 04:39:55;;;;;;;10.23;1.77;;;11.00;99.90;;;;;;5062362;28;20202;-92
2022/09/17 04:42:20;;;;;;;11.63;1.63;;;11.00;99.90;;;;;;5065221;28;20182;-92
2022/09/17 04:44:46;;;;;;;7.07;1.63;;;11.00;99.90;;;;;;5060515;28;20179;-92
2022/09/17 04:47:11;;;;;;;7.40;1.70;;;11.00;99.90;;;;;;5059310;28;20229;-92
2022/09/17 04:49:37;;;;;;;7.87;1.67;;;10.90;99.90;;;;;;5069834;28;20179;-92
2022/09/17 04:52:02;;;;;;;13.77;1.80;;;10.90;99.90;;;;;;5072416;28;20171;-92
2022/09/17 04:54:28;;;;;;;9.37;1.73;;;10.90;99.90;;;;;;5071193;28;20572;-91
2022/09/17 04:56:53;;;;;;;6.30;1.53;;;10.90;99.90;;;;;;5089220;28;20546;-92
2022/09/17 04:59:19;;;;;;;13.97;2.17;;;10.80;99.90;;;;;;5071812;28;20552;-92
2022/09/17 05:01:45;;;;;;;9.70;1.63;;;10.80;99.90;;;;;;5072287;28;20229;-92
2022/09/17 05:04:10;;;;;;;7.17;1.67;;;10.70;99.90;;;;;;5072219;28;20670;-92
2022/09/17 05:06:36;;;;;;;12.00;1.70;;;10.70;99.90;;;;;;5072307;28;20182;-92
2022/09/17 05:09:02;;;;;;;9.10;1.70;;;10.70;99.90;;;;;;5070689;28;20195;-92
2022/09/17 05:11:28;;;;;;;8.33;1.63;;;10.70;99.90;;;;;;5072415;28;20232;-92
2022/09/17 05:13:54;;;;;;;5.10;1.50;;;10.70;99.90;;;;;;5072186;28;20232;-93
2022/09/17 05:16:19;;;;;;;6.57;1.27;;;10.70;99.90;;;;;;5072237;28;20610;-92
2022/09/17 05:18:45;;;;;;;7.37;1.53;;;10.90;99.90;;;;;;5071400;28;20202;-92
2022/09/17 05:21:11;;;;;;;13.23;1.90;;;10.70;99.90;;;;;;5072571;28;20225;-93
2022/09/17 05:23:37;;;;;;;6.97;1.43;;;10.70;99.90;;;;;;5072728;28;20178;-92
2022/09/17 05:26:02;;;;;;;7.37;1.70;;;10.70;99.90;;;;;;5072267;28;20236;-92
2022/09/17 05:28:28;;;;;;;6.80;1.50;;;10.70;99.90;;;;;;5072820;28;20210;-93
2022/09/17 05:30:57;;;;;;;8.37;1.53;;;10.70;99.90;;;;;;5073964;28;20195;-92
2022/09/17 05:33:22;;;;;;;9.73;1.43;;;10.80;99.90;;;;;;5074343;28;20182;-92
2022/09/17 05:35:48;;;;;;;9.97;1.77;;;10.90;99.90;;;;;;5087402;28;20179;-92
2022/09/17 05:38:13;;;;;;;6.87;1.70;;;10.80;99.90;;;;;;5095478;28;20206;-91
2022/09/17 05:40:39;;;;;;;8.13;1.40;;;10.80;99.90;;;;;;5089098;28;20255;-92
2022/09/17 05:43:06;;;;;;;6.33;1.33;;;10.90;99.90;;;;;;5074265;28;20274;-91
2022/09/17 05:45:33;;;;;;;7.13;1.60;;;10.90;99.90;;;;;;5075814;28;20202;-91
2022/09/17 05:48:04;;;;;;;9.53;1.50;;;10.90;99.90;;;;;;5076252;28;20191;-91
2022/09/17 05:50:30;;;;;;;6.73;1.53;;;10.80;99.90;;;;;;5076944;28;20160;-91
2022/09/17 05:52:56;;;;;;;9.37;1.77;;;10.90;99.90;;;;;;5075748;28;20175;-91
2022/09/17 05:55:22;;;;;;;5.83;1.37;;;10.90;99.90;;;;;;5075500;28;20179;-92
2022/09/17 05:57:51;;;;;;;8.43;1.60;;;10.90;99.90;;;;;;5076209;28;20199;-92
2022/09/17 06:00:17;;;;;;;10.20;1.47;;;10.90;99.90;;;;;;5076879;28;20214;-92
2022/09/17 06:02:43;;;;;;;9.87;1.70;;;10.90;99.90;;;;;;5075512;28;20171;-92
2022/09/17 06:05:11;;;;;;;6.20;1.73;;;11.00;99.90;;;;;;5076768;28;20173;-92
2022/09/17 06:07:37;;;;;;;6.73;1.67;;;10.90;99.90;;;;;;5075665;28;20191;-92
2022/09/17 06:10:05;;;;;;;7.13;1.80;;;10.90;99.90;;;;;;5075413;28;20653;-92
2022/09/17 06:12:34;;;;;;;8.93;2.10;;;11.00;99.90;;;;;;5075448;28;20560;-92
2022/09/17 06:15:00;;;;;;;16.03;2.03;;;11.00;99.90;;;;;;5076686;28;20203;-92
2022/09/17 06:17:26;;;;;;;5.27;1.87;;;11.00;99.90;;;;;;5075812;28;20206;-92
2022/09/17 06:19:54;;;;;;;7.00;1.40;;;11.00;99.90;;;;;;5078324;28;20195;-92
2022/09/17 06:22:20;;;;;;;9.87;2.30;;;11.00;99.90;;;;;;5084206;28;20194;-94
2022/09/17 06:24:46;;;;;;;9.87;2.10;;;11.00;99.90;;;;;;5085276;28;20173;-94
2022/09/17 06:27:11;;;;;;;10.03;2.20;;;11.10;99.90;;;;;;5103479;22;20202;-84
2022/09/17 06:29:37;;;;;;;5.83;2.27;;;10.90;99.90;;;;;;5076743;28;20234;-80
2022/09/17 06:32:03;;;;;;;17.20;2.60;;;10.90;99.90;;;;;;5075752;28;20186;-78
2022/09/17 06:34:28;;;;;;;7.80;1.83;;;10.90;99.90;;;;;;5076839;28;20228;-78
2022/09/17 06:36:54;;;;;;;8.70;2.27;;;10.90;99.90;;;;;;5078773;28;20296;-78
2022/09/17 06:39:19;;;;;;;16.23;2.47;;;10.90;99.90;;;;;;5077232;28;20171;-78
2022/09/17 06:41:45;;;;;;;8.60;1.83;;;10.90;99.90;;;;;;5079604;28;20209;-78
2022/09/17 06:44:10;;;;;;;7.70;1.80;;;10.90;99.90;;;;;;5080169;28;20182;-78
2022/09/17 06:46:36;;;;;;;9.43;2.10;;;10.90;99.90;;;;;;5077455;28;20182;-78
2022/09/17 06:49:02;;;;;;;9.27;2.00;;;11.00;99.90;;;;;;5080930;28;20181;-78
2022/09/17 06:51:27;;;;;;;6.23;1.70;;;11.00;99.90;;;;;;5079463;28;20194;-78
2022/09/17 06:53:53;;;;;;;10.23;1.50;;;11.10;99.90;;;;;;5077394;28;20183;-78
2022/09/17 06:56:18;;;;;;;11.63;1.67;;;11.20;99.90;;;;;;5079286;28;20182;-78
2022/09/17 06:58:44;;;;;;;8.23;1.40;;;11.10;99.90;;;;;;5078907;28;20179;-78
2022/09/17 07:01:11;;;;;;;7.97;1.60;;;11.10;99.90;;;;;;5079832;28;20207;-78
2022/09/17 07:03:37;;;;;;;5.97;1.60;;;11.20;99.90;;;;;;5077867;28;20193;-78
2022/09/17 07:06:07;;;;;;;7.87;1.50;;;11.10;99.90;;;;;;5093417;28;20179;-78
2022/09/17 07:08:33;;;;;;;11.53;2.00;;;11.10;99.90;;;;;;5073544;28;20564;-78
2022/09/17 07:10:59;;;;;;;7.53;1.63;;;11.20;99.90;;;;;;5076695;28;20198;-78
2022/09/17 07:13:25;;;;;;;10.60;2.73;;;11.20;99.90;;;;;;5075769;28;20179;-78
2022/09/17 07:15:56;;;;;;;8.33;1.60;;;11.30;99.90;;;;;;5079936;28;20178;-79
2022/09/17 07:18:22;;;;;;;9.43;1.73;;;11.30;99.90;;;;;;5081149;28;20656;-79
2022/09/17 07:20:59;;;;;;;10.97;1.67;;;11.40;99.90;;;;;;5077522;28;20267;-77
2022/09/17 07:23:30;;;;;;;7.33;2.00;;;11.40;99.90;;;;;;5077837;28;20238;-77
2022/09/17 07:25:58;;;;;;;8.63;1.73;;;11.50;99.90;;;;;;5077763;28;20158;-77
2022/09/17 07:28:24;;;;;;;8.03;1.10;;;11.60;99.90;;;;;;5074912;28;20206;-78
2022/09/17 07:30:51;;;;;;;4.53;1.40;;;11.70;99.90;;;;;;5076225;28;20627;-79
2022/09/17 07:33:22;;;;;;;4.90;1.20;;;11.70;99.90;;;;;;5072949;28;20253;-78
2022/09/17 07:36:02;;;;;;;4.20;1.40;;;11.80;99.90;;;;;;5063203;28;20180;-78
2022/09/17 07:38:29;;;;;;;3.87;1.10;;;11.80;99.90;;;;;;5063341;28;20182;-78
2022/09/17 07:41:04;;;;;;;6.27;1.17;;;11.90;99.90;;;;;;5062648;28;20203;-77
2022/09/17 07:43:32;;;;;;;4.57;1.57;;;11.90;99.90;;;;;;5063157;28;20175;-78
2022/09/17 07:45:59;;;;;;;8.43;1.97;;;12.00;99.90;;;;;;5062024;28;20186;-78
2022/09/17 07:48:27;;;;;;;3.70;1.37;;;11.90;99.90;;;;;;5061671;28;20207;-79
2022/09/17 07:50:52;;;;;;;3.43;0.93;;;12.00;99.90;;;;;;5066458;28;20200;-77
2022/09/17 07:53:18;;;;;;;9.13;1.47;;;12.00;99.90;;;;;;5062862;28;20262;-78
2022/09/17 07:55:58;;;;;;;9.43;1.33;;;12.10;99.90;;;;;;5061700;28;20184;-78
2022/09/17 07:58:32;;;;;;;13.43;2.13;;;12.10;99.90;;;;;;5063946;28;20240;-77
2022/09/17 08:01:02;;;;;;;6.13;1.40;;;12.10;99.90;;;;;;5068030;28;20199;-78
2022/09/17 08:03:28;;;;;;;4.20;1.20;;;12.30;1.00;;;;;;5098653;28;20175;-77
2022/09/17 08:06:00;;;;;;;8.20;1.93;;;12.40;1.00;;;;;;5061352;28;20283;-78
2022/09/17 08:08:26;;;;;;;10.20;1.40;;;12.40;1.00;;;;;;5061180;28;20171;-78
2022/09/17 08:10:51;;;;;;;9.27;1.80;;;12.40;1.00;;;;;;5062471;28;20340;-78
2022/09/17 08:13:16;;;;;;;8.47;1.40;;;12.50;1.00;;;;;;5057718;28;20172;-78
2022/09/17 08:15:42;;;;;;;3.73;1.00;;;12.60;1.00;;;;;;5061975;28;20184;-77
2022/09/17 08:18:07;;;;;;;4.67;1.40;;;12.70;1.00;;;;;;5069389;28;20182;-78
2022/09/17 08:20:33;;;;;;;6.37;1.20;;;12.70;99.90;;;;;;5073019;28;20210;-79
2022/09/17 08:22:59;;;;;;;5.97;1.30;;;12.70;1.00;;;;;;5076392;28;20171;-78
2022/09/17 08:25:25;;;;;;;5.40;1.07;;;12.70;99.90;;;;;;5069482;28;20264;-78
2022/09/17 08:27:57;;;;;;;7.10;1.90;;;12.80;1.00;;;;;;5064867;28;20194;-77
2022/09/17 08:30:23;;;;;;;9.20;1.50;;;12.90;99.90;;;;;;5066533;28;20203;-77
2022/09/17 08:32:48;;;;;;;7.23;1.30;;;13.00;1.00;;;;;;5064060;28;20237;-78
2022/09/17 08:35:15;;;;;;;5.30;1.23;;;13.00;1.00;;;;;;5058978;28;20187;-78
2022/09/17 08:37:41;;;;;;;3.27;1.03;;;13.00;1.00;;;;;;5061942;28;20179;-77
2022/09/17 08:40:15;;;;;;;8.50;1.63;;;13.10;1.00;;;;;;5063880;28;20219;-79
2022/09/17 08:42:55;;;;;;;7.20;1.03;;;13.20;1.00;;;;;;5073376;28;20179;-80
2022/09/17 08:45:21;;;;;;;1.90;0.80;;;13.20;99.90;;;;;;5071325;28;20178;-82
2022/09/17 08:47:47;;;;;;;3.90;1.07;;;13.20;1.00;;;;;;5073034;28;20175;-82
2022/09/17 08:50:19;;;;;;;6.63;1.10;;;13.30;1.00;;;;;;5068154;28;20278;-82
2022/09/17 08:53:30;;;;;;;8.07;1.30;;;13.40;1.00;;;;;;5071576;28;20199;-82
2022/09/17 08:56:11;;;;;;;2.67;0.80;;;13.50;1.00;;;;;;5059877;28;20188;-82
2022/09/17 08:59:10;;;;;;;2.60;0.87;;;13.60;1.00;;;;;;5063742;28;20176;-82
2022/09/17 09:01:46;;;;;;;5.27;1.10;;;13.60;1.00;;;;;;5062737;28;20284;-82
2022/09/17 09:04:31;;;;;;;4.63;1.10;;;13.60;1.00;;;;;;5064732;28;20179;-82
2022/09/17 09:07:07;;;;;;;5.57;0.90;;;13.60;99.90;;;;;;5063079;28;20175;-81
2022/09/17 09:09:44;;;;;;;5.20;1.02;;;13.70;27.30;;;;;;5069186;28;20502;-82
2022/09/17 09:12:17;;;;;;;8.37;1.17;;;13.70;99.90;;;;;;5070251;28;20553;-80
2022/09/17 09:15:07;;;;;;;3.97;1.00;;;13.70;99.90;;;;;;5060525;28;20179;-80
2022/09/17 09:17:40;;;;;;;5.60;1.13;;;13.70;99.90;;;;;;5073908;28;20179;-81
2022/09/17 09:20:16;;;;;;;4.13;1.23;;;13.80;99.90;;;;;;5075305;28;20263;-80
2022/09/17 09:22:50;;;;;;;5.77;0.97;;;13.90;99.90;;;;;;5077320;28;20175;-81
2022/09/17 09:25:26;;;;;;;5.97;1.27;;;14.00;1.00;;;;;;5070113;28;20174;-81
2022/09/17 09:28:10;;;;;;;4.70;0.70;;;14.10;99.90;;;;;;5072254;28;20290;-81
2022/09/17 09:30:50;;;;;;;2.80;1.00;;;14.20;1.00;;;;;;5069167;28;20229;-82
2022/09/17 09:33:20;;;;;;;6.53;1.23;;;14.20;74.40;;;;;;5067702;28;20192;-81
2022/09/17 09:35:46;;;;;;;3.83;0.87;;;14.30;1.00;;;;;;5073599;28;20178;-79
2022/09/17 09:38:39;;;;;;;4.73;0.93;;;14.40;1.00;;;;;;5073654;28;20175;-80
2022/09/17 09:41:23;;;;;;;3.03;0.83;;;14.50;99.90;;;;;;5068488;28;20293;-79
2022/09/17 09:43:59;;;;;;;5.50;0.90;;;14.70;1.00;;;;;;5065297;28;20179;-79
2022/09/17 09:46:53;;;;;;;5.17;1.37;;;14.70;99.90;;;;;;5095072;28;20183;-79
2022/09/17 09:49:24;;;;;;;8.20;1.10;;;14.60;1.00;;;;;;5063646;28;20168;-79
2022/09/17 09:52:16;;;;;;;4.57;1.20;;;14.50;1.00;;;;;;5067885;28;20207;-80
2022/09/17 09:55:00;;;;;;;1.53;0.57;;;14.40;92.70;;;;;;5068450;28;20177;-79
2022/09/17 09:57:45;;;;;;;3.20;0.80;;;14.50;1.00;;;;;;5065298;28;20182;-80
2022/09/17 10:00:25;;;;;;;3.83;0.90;;;14.40;1.00;;;;;;5066454;28;20202;-79
2022/09/17 10:02:56;;;;;;;6.67;1.33;;;14.40;99.90;;;;;;5069806;28;20602;-79
2022/09/17 10:05:22;;;;;;;9.03;1.10;;;14.50;99.90;;;;;;5070693;28;20162;-80
2022/09/17 10:07:48;;;;;;;2.50;0.77;;;14.60;99.90;;;;;;5066204;28;20179;-79
2022/09/17 10:10:13;;;;;;;4.00;0.97;;;14.80;1.00;;;;;;5062202;28;20583;-80
2022/09/17 10:12:39;;;;;;;4.10;1.10;;;14.80;69.60;;;;;;5062341;28;20185;-79
2022/09/17 10:15:26;;;;;;;7.53;1.23;;;14.70;99.90;;;;;;5065150;28;20277;-80
2022/09/17 10:18:14;;;;;;;4.37;0.83;;;14.70;99.90;;;;;;5074820;28;20214;-80
2022/09/17 10:20:51;;;;;;;0.90;0.63;;;14.70;1.00;;;;;;5077495;28;20215;-80
2022/09/17 10:23:17;;;;;;;3.97;1.17;;;14.80;99.90;;;;;;5077133;28;20228;-80
2022/09/17 10:25:43;;;;;;;4.13;0.83;;;14.80;99.90;;;;;;5076162;28;20175;-80
2022/09/17 10:28:28;;;;;;;2.70;0.97;;;15.10;1.00;;;;;;5076496;28;20191;-80
2022/09/17 10:30:58;;;;;;;3.03;0.80;;;15.10;1.00;;;;;;5075960;28;20195;-79
2022/09/17 10:33:29;;;;;;;2.90;0.87;;;15.00;99.90;;;;;;5077943;28;20182;-79
2022/09/17 10:36:08;;;;;;;3.13;1.17;;;14.80;99.90;;;;;;5078046;28;20178;-80
2022/09/17 10:38:40;;;;;;;5.23;1.17;;;14.30;1.00;;;;;;5076751;28;20174;-80
2022/09/17 10:41:23;;;;;;;4.20;1.00;;;14.00;99.90;;;;;;5077086;28;20202;-80
2022/09/17 10:43:50;;;;;;;3.23;0.83;;;13.80;1.00;;;;;;5078132;28;20151;-80
2022/09/17 10:46:34;;;;;;;5.37;1.27;;;13.80;99.90;;;;;;5079022;28;20186;-80
2022/09/17 10:49:30;;;;;;;2.60;0.80;;;13.80;99.90;;;;;;5077139;28;20174;-79
2022/09/17 10:52:20;;;;;;;3.33;0.70;;;13.90;1.00;;;;;;5078814;28;20281;-80
2022/09/17 10:55:21;;;;;;;5.20;1.00;;;14.00;30.50;;;;;;5076952;28;20633;-80
2022/09/17 10:58:02;;;;;;;3.43;1.07;;;14.00;1.00;;;;;;5077514;28;20189;-80
2022/09/17 11:00:38;;;;;;;2.13;0.80;;;13.90;99.90;;;;;;5078854;28;20195;-79
2022/09/17 11:03:31;;;;;;;3.40;0.63;;;13.90;99.90;;;;;;5078041;28;20170;-79
2022/09/17 11:06:17;;;;;;;6.60;1.43;;;13.90;99.90;;;;;;5078498;28;20605;-79
2022/09/17 11:08:57;;;;;;;8.70;1.50;;;14.00;99.90;;;;;;5078310;28;20246;-79
2022/09/17 11:11:56;;;;;;;2.70;0.90;;;14.10;99.90;;;;;;5078062;28;20201;-80
2022/09/17 11:14:39;;;;;;;1.80;0.80;;;14.30;1.00;;;;;;5075408;28;20160;-80
2022/09/17 11:17:30;;;;;;;1.27;0.70;;;14.50;20.60;;;;;;5076332;28;20163;-79
2022/09/17 11:20:03;;;;;;;4.63;0.70;;;14.60;99.90;;;;;;5077020;28;20202;-80
2022/09/17 11:23:00;;;;;;;3.53;0.70;;;14.70;99.90;;;;;;5077507;28;20230;-80
2022/09/17 11:25:26;;;;;;;3.23;0.90;;;14.70;99.90;;;;;;5075697;28;20160;-80
2022/09/17 11:28:16;;;;;;;2.93;0.90;;;14.60;1.00;;;;;;5077265;28;20183;-79
2022/09/17 11:30:55;;;;;;;5.90;0.53;;;14.30;99.90;;;;;;5074844;28;20199;-79
2022/09/17 11:33:47;;;;;;;0.77;0.40;;;13.90;1.00;;;;;;5077342;28;20169;-79
2022/09/17 11:36:36;;;;;;;0.67;0.50;;;13.60;99.90;;;;;;5066429;28;20197;-80
2022/09/17 11:39:22;;;;;;;3.07;0.53;;;13.40;99.90;;;;;;5065205;28;20182;-80
2022/09/17 11:41:51;;;;;;;3.50;0.67;;;13.30;99.90;;;;;;5074960;28;20214;-79
2022/09/17 11:44:29;;;;;;;0.73;0.50;;;13.20;1.00;;;;;;5073827;28;20645;-78
2022/09/17 11:47:11;;;;;;;1.93;0.50;;;12.80;90.80;;;;;;5073881;28;20648;-78
2022/09/17 11:50:00;;;;;;;1.10;0.40;;;12.80;24.70;;;;;;5075047;28;20621;-78
2022/09/17 11:52:43;;;;;;;2.77;0.43;;;12.70;99.90;;;;;;5073757;28;20524;-78
2022/09/17 11:55:21;;;;;;;2.57;0.40;;;12.50;99.90;;;;;;5073325;28;20170;-78
2022/09/17 11:57:51;;;;;;;0.30;0.30;;;12.40;99.90;;;;;;5073592;28;20659;-78
2022/09/17 12:00:22;;;;;;;1.60;0.40;;;12.50;1.00;;;;;;5073124;28;20203;-78
2022/09/17 12:03:13;;;;;;;2.40;0.43;;;12.60;1.00;;;;;;5075028;28;20163;-78
2022/09/17 12:05:45;;;;;;;3.43;0.60;;;12.70;1.00;;;;;;5073739;28;20167;-78
2022/09/17 12:08:20;;;;;;;0.73;0.40;;;12.70;1.00;;;;;;5075052;28;20151;-77
2022/09/17 12:11:06;;;;;;;0.57;0.40;;;12.60;1.00;;;;;;5076390;28;20205;-78
2022/09/17 12:13:55;;;;;;;1.53;0.50;;;12.60;1.00;;;;;;5075928;28;20230;-78
2022/09/17 12:16:35;;;;;;;0.73;0.50;;;12.40;1.00;;;;;;5076008;28;20167;-79
2022/09/17 12:19:06;;;;;;;2.20;0.63;;;12.40;18.40;;;;;;5074446;28;20731;-78
2022/09/17 12:21:39;;;;;;;2.77;0.67;;;12.30;78.90;;;;;;5073180;28;20566;-77
2022/09/17 12:24:20;;;;;;;1.13;0.50;;;12.10;95.80;;;;;;5063336;28;20301;-77
2022/09/17 12:27:16;;;;;;;1.50;0.50;;;12.00;99.90;;;;;;5058798;28;20302;-78
2022/09/17 12:30:13;;;;;;;3.40;0.80;;;11.90;99.90;;;;;;5059635;28;20715;-77
2022/09/17 12:33:10;;;;;;;1.10;0.50;;;11.90;99.90;;;;;;5075321;28;20181;-76
2022/09/17 12:36:00;;;;;;;3.23;0.50;;;11.90;99.90;;;;;;5059701;28;20265;-78
2022/09/17 12:38:51;;;;;;;0.83;0.37;;;11.90;99.90;;;;;;5066640;28;20179;-78
2022/09/17 12:41:30;;;;;;;0.83;0.33;;;11.90;99.90;;;;;;5064920;28;20215;-77
2022/09/17 12:44:26;;;;;;;1.53;0.53;;;12.10;99.90;;;;;;5065083;28;20258;-77
2022/09/17 12:47:39;;;;;;;1.70;0.40;;;12.10;99.90;;;;;;5066152;28;20191;-78
2022/09/17 12:50:08;;;;;;;1.47;0.43;;;12.20;99.90;;;;;;5034200;28;20202;-78
2022/09/17 12:52:45;;;;;;;0.80;0.40;;;12.40;99.90;;;;;;5059730;28;20179;-77
2022/09/17 12:55:16;;;;;;;1.80;0.50;;;12.50;99.90;;;;;;5067392;28;20190;-77
2022/09/17 12:58:04;;;;;;;2.07;0.30;;;12.70;99.90;;;;;;5067142;28;20168;-77
2022/09/17 13:00:40;;;;;;;1.10;0.40;;;12.80;99.90;;;;;;5065882;28;20224;-78
2022/09/17 13:03:22;;;;;;;2.63;0.90;;;13.00;99.90;;;;;;5062560;28;20163;-78
2022/09/17 13:06:16;;;;;;;3.00;0.93;;;13.30;99.90;;;;;;5066764;28;20203;-78
2022/09/17 13:09:02;;;;;;;2.13;0.90;;;13.40;99.90;;;;;;5061128;28;20183;-77
2022/09/17 13:11:47;;;;;;;2.90;0.90;;;13.40;99.90;;;;;;5067245;28;20199;-79
2022/09/17 13:14:41;;;;;;;2.73;0.87;;;13.50;30.90;;;;;;5060631;28;20626;-78
2022/09/17 13:17:32;;;;;;;3.50;1.20;;;13.70;1.00;;;;;;5063760;28;20175;-78
2022/09/17 13:20:16;;;;;;;2.77;0.87;;;13.80;1.00;;;;;;5061829;28;20267;-78